Time;durP1;ratioP1;P1;durP2;ratioP2;P2;SDS_P1;SDS_P2;PMS_P1;PMS_P2;Temp;Humidity;BMP_temperature;BMP_pressure;BME280_temperature;BME280_humidity;BME280_pressure;Samples;Min_cycle;Max_cycle;Signal;HPM_P1;HPM_P2
2022/04/25 00:00:00;;;;;;;7.60;2.30;;;19.00;66.90;;;;;;5042349;28;20194;-73
2022/04/25 00:02:29;;;;;;;5.57;2.00;;;18.90;67.00;;;;;;5042642;28;20210;-73
2022/04/25 00:04:58;;;;;;;5.07;2.47;;;18.90;67.30;;;;;;5041436;28;20660;-73
2022/04/25 00:07:26;;;;;;;4.23;2.40;;;18.80;67.50;;;;;;5039943;28;20219;-73
2022/04/25 00:09:54;;;;;;;4.97;2.50;;;18.80;67.70;;;;;;5041262;28;20195;-72
2022/04/25 00:12:24;;;;;;;7.67;2.60;;;18.80;67.90;;;;;;5041575;28;20198;-73
2022/04/25 00:14:53;;;;;;;5.57;2.63;;;18.70;68.10;;;;;;5043763;28;20202;-72
2022/04/25 00:17:21;;;;;;;5.73;2.77;;;18.70;68.40;;;;;;5040059;28;20201;-75
2022/04/25 00:19:49;;;;;;;7.07;3.17;;;18.60;68.70;;;;;;5037351;28;20206;-74
2022/04/25 00:22:18;;;;;;;5.33;2.77;;;18.50;68.80;;;;;;5038532;28;20206;-73
2022/04/25 00:24:48;;;;;;;6.87;3.30;;;18.50;69.00;;;;;;5040013;28;20210;-73
2022/04/25 00:27:16;;;;;;;5.53;2.90;;;18.40;68.90;;;;;;5041632;28;20215;-73
2022/04/25 00:29:46;;;;;;;5.57;3.50;;;18.40;69.10;;;;;;5041778;28;20225;-73
2022/04/25 00:32:14;;;;;;;6.80;3.60;;;18.30;69.10;;;;;;5041430;28;20281;-73
2022/04/25 00:34:42;;;;;;;5.47;2.90;;;18.30;69.30;;;;;;5040178;28;20907;-72
2022/04/25 00:37:11;;;;;;;6.23;3.07;;;18.30;69.40;;;;;;5042264;28;20214;-73
2022/04/25 00:39:39;;;;;;;4.70;3.00;;;18.20;69.60;;;;;;5038497;28;20196;-73
2022/04/25 00:42:08;;;;;;;8.20;3.50;;;18.20;69.70;;;;;;5042895;28;20252;-72
2022/04/25 00:44:36;;;;;;;6.20;3.47;;;18.20;69.90;;;;;;5037872;28;20195;-72
2022/04/25 00:47:07;;;;;;;6.10;3.23;;;18.10;69.90;;;;;;5039716;28;20207;-73
2022/04/25 00:49:36;;;;;;;6.67;3.80;;;18.10;70.80;;;;;;5039535;28;20873;-73
2022/04/25 00:52:05;;;;;;;6.07;3.37;;;18.00;70.70;;;;;;5041322;28;20233;-73
2022/04/25 00:54:34;;;;;;;8.87;3.40;;;18.00;71.30;;;;;;5040785;28;20198;-73
2022/04/25 00:57:03;;;;;;;5.17;3.63;;;17.90;71.40;;;;;;5040356;28;20594;-74
2022/04/25 00:59:32;;;;;;;5.23;3.37;;;17.90;71.70;;;;;;5043354;28;20217;-73
2022/04/25 01:02:00;;;;;;;5.37;3.23;;;17.80;71.70;;;;;;5038343;28;20195;-75
2022/04/25 01:04:30;;;;;;;7.50;3.53;;;17.80;71.80;;;;;;5041076;28;20195;-74
2022/04/25 01:07:00;;;;;;;6.07;3.43;;;17.80;72.00;;;;;;5040289;28;20213;-74
2022/04/25 01:09:28;;;;;;;6.60;3.40;;;17.70;72.00;;;;;;5038734;28;20797;-72
2022/04/25 01:11:58;;;;;;;8.33;3.63;;;17.70;72.30;;;;;;5039275;28;20916;-73
2022/04/25 01:14:27;;;;;;;7.23;3.77;;;17.60;72.40;;;;;;5041642;28;20191;-73
2022/04/25 01:16:56;;;;;;;10.37;3.83;;;17.60;72.70;;;;;;5038274;28;20226;-72
2022/04/25 01:19:24;;;;;;;6.03;3.43;;;17.60;72.70;;;;;;5042747;28;20305;-73
2022/04/25 01:21:59;;;;;;;8.40;3.70;;;17.50;72.90;;;;;;5042229;28;20851;-73
2022/04/25 01:27:16;;;;;;;8.00;3.87;;;17.50;73.00;;;;;;5040051;28;20195;-74
2022/04/25 01:29:45;;;;;;;5.43;3.20;;;17.40;73.50;;;;;;5039689;28;20557;-74
2022/04/25 01:32:15;;;;;;;8.00;3.60;;;17.40;73.50;;;;;;5040241;28;20195;-73
2022/04/25 01:34:44;;;;;;;7.60;3.53;;;17.30;73.70;;;;;;5039973;28;20206;-74
2022/04/25 01:37:13;;;;;;;6.67;3.87;;;17.30;73.70;;;;;;5039543;28;20223;-73
2022/04/25 01:39:46;;;;;;;4.57;3.20;;;17.30;74.10;;;;;;5040328;28;20199;-73
2022/04/25 01:42:16;;;;;;;5.80;3.47;;;17.20;74.20;;;;;;5040193;28;20198;-73
2022/04/25 01:44:44;;;;;;;6.67;3.87;;;17.20;74.20;;;;;;5037782;28;20289;-72
2022/04/25 01:47:13;;;;;;;7.03;3.37;;;17.20;74.20;;;;;;5040178;28;20198;-72
2022/04/25 01:49:41;;;;;;;5.90;3.53;;;17.20;74.40;;;;;;5039396;28;20248;-74
2022/04/25 01:52:15;;;;;;;6.37;2.97;;;17.10;74.40;;;;;;5040472;28;20238;-73
2022/04/25 01:54:45;;;;;;;5.23;2.93;;;17.10;74.60;;;;;;5038783;28;20200;-73
2022/04/25 01:57:13;;;;;;;7.90;2.70;;;17.10;74.50;;;;;;5036107;28;20219;-73
2022/04/25 01:59:43;;;;;;;5.63;2.90;;;17.00;74.40;;;;;;5034612;28;20209;-73
2022/04/25 02:02:12;;;;;;;9.17;3.23;;;17.00;74.50;;;;;;5039860;28;20199;-73
2022/04/25 02:04:41;;;;;;;6.50;3.00;;;17.00;74.60;;;;;;5039642;28;20206;-73
2022/04/25 02:07:11;;;;;;;4.50;2.60;;;17.00;74.70;;;;;;5039643;28;20187;-74
2022/04/25 02:09:39;;;;;;;4.57;2.70;;;17.00;74.90;;;;;;5037724;28;21317;-74
2022/04/25 02:12:10;;;;;;;4.50;3.07;;;16.90;75.30;;;;;;5041961;28;20199;-74
2022/04/25 02:14:41;;;;;;;4.47;2.60;;;16.90;75.70;;;;;;5037247;28;20829;-74
2022/04/25 02:17:10;;;;;;;4.80;2.87;;;16.90;75.70;;;;;;5040106;28;20305;-73
2022/04/25 02:19:39;;;;;;;5.87;3.00;;;16.80;75.90;;;;;;5039416;28;20214;-74
2022/04/25 02:22:09;;;;;;;5.83;2.80;;;16.80;75.80;;;;;;5037896;28;20206;-73
2022/04/25 02:24:38;;;;;;;3.70;2.63;;;16.80;75.80;;;;;;5039575;28;20195;-74
2022/04/25 02:27:07;;;;;;;6.27;2.63;;;16.80;75.80;;;;;;5036979;28;20226;-74
2022/04/25 02:29:39;;;;;;;4.73;2.83;;;16.80;75.90;;;;;;5038286;28;20194;-74
2022/04/25 02:32:09;;;;;;;6.67;3.23;;;16.80;75.90;;;;;;5039369;28;20290;-74
2022/04/25 02:34:38;;;;;;;5.17;2.70;;;16.80;75.90;;;;;;5039681;28;20210;-75
2022/04/25 02:37:06;;;;;;;5.57;3.30;;;16.70;75.90;;;;;;5040870;28;20256;-75
2022/04/25 02:39:35;;;;;;;4.43;2.47;;;16.80;76.00;;;;;;5041733;28;20188;-74
2022/04/25 02:42:03;;;;;;;2.83;2.33;;;16.80;76.00;;;;;;5040205;28;20439;-74
2022/04/25 02:44:31;;;;;;;7.20;2.53;;;16.80;76.00;;;;;;5041609;28;20195;-74
2022/04/25 02:47:02;;;;;;;13.87;4.07;;;16.70;76.10;;;;;;5035845;28;20201;-73
2022/04/25 02:49:30;;;;;;;9.53;3.30;;;16.70;76.90;;;;;;5039214;28;21664;-73
2022/04/25 02:51:59;;;;;;;7.57;3.63;;;16.70;79.20;;;;;;5039964;28;20369;-74
2022/04/25 02:54:27;;;;;;;12.00;3.80;;;16.60;79.10;;;;;;5039881;28;20932;-75
2022/04/25 02:56:56;;;;;;;7.90;3.47;;;16.60;79.50;;;;;;5035995;28;20258;-74
2022/04/25 02:59:25;;;;;;;7.57;4.13;;;16.50;79.60;;;;;;5034349;28;21363;-74
2022/04/25 03:01:53;;;;;;;8.87;3.60;;;16.40;80.70;;;;;;5036296;28;20202;-75
2022/04/25 03:04:23;;;;;;;5.83;3.37;;;16.40;81.80;;;;;;5040633;28;20240;-73
2022/04/25 03:06:53;;;;;;;6.20;3.40;;;16.30;82.00;;;;;;5037490;28;20241;-74
2022/04/25 03:09:23;;;;;;;6.40;3.37;;;16.30;81.60;;;;;;5039606;28;20786;-73
2022/04/25 03:11:51;;;;;;;6.23;3.30;;;16.20;81.50;;;;;;5040680;28;20230;-74
2022/04/25 03:14:19;;;;;;;4.90;3.00;;;16.20;81.40;;;;;;5038172;28;20207;-74
2022/04/25 03:16:49;;;;;;;8.00;3.60;;;16.20;82.10;;;;;;5039099;28;20218;-73
2022/04/25 03:19:18;;;;;;;7.20;3.27;;;16.20;81.90;;;;;;5039429;28;20193;-75
2022/04/25 03:21:48;;;;;;;8.87;4.23;;;16.10;82.00;;;;;;5038634;28;20211;-74
2022/04/25 03:24:17;;;;;;;7.03;3.90;;;16.10;81.90;;;;;;5041053;28;20199;-73
2022/04/25 03:26:45;;;;;;;9.37;3.50;;;16.10;81.90;;;;;;5037288;28;20531;-74
2022/04/25 03:29:13;;;;;;;8.50;3.80;;;16.10;81.80;;;;;;5035121;28;20203;-73
2022/04/25 03:31:42;;;;;;;8.90;3.50;;;16.00;82.00;;;;;;5036471;28;20202;-74
2022/04/25 03:34:11;;;;;;;7.50;3.57;;;16.00;82.30;;;;;;5039459;28;20222;-73
2022/04/25 03:36:39;;;;;;;7.77;3.23;;;16.00;82.30;;;;;;5037969;28;20196;-73
2022/04/25 03:39:09;;;;;;;9.43;3.60;;;16.00;82.50;;;;;;5039510;28;20198;-73
2022/04/25 03:41:37;;;;;;;10.27;3.67;;;16.00;82.50;;;;;;5038557;28;20213;-73
2022/04/25 03:44:06;;;;;;;8.20;3.43;;;16.00;82.70;;;;;;5035856;28;20194;-74
2022/04/25 03:46:34;;;;;;;6.23;3.43;;;16.00;82.80;;;;;;5039478;28;20194;-73
2022/04/25 03:49:03;;;;;;;5.43;3.07;;;16.00;82.70;;;;;;5039552;28;20653;-74
2022/04/25 03:51:31;;;;;;;8.07;3.20;;;16.00;83.00;;;;;;5038530;28;20213;-74
2022/04/25 03:54:00;;;;;;;5.83;2.87;;;15.90;82.70;;;;;;5038147;28;20197;-73
2022/04/25 03:59:15;;;;;;;9.17;3.10;;;15.90;82.90;;;;;;5037784;28;20198;-73
2022/04/25 04:01:43;;;;;;;6.33;3.20;;;15.90;82.70;;;;;;5034898;28;20207;-74
2022/04/25 04:04:12;;;;;;;7.03;3.50;;;15.90;82.70;;;;;;5037689;28;20531;-74
2022/04/25 04:06:40;;;;;;;7.00;3.20;;;15.90;82.70;;;;;;5038300;28;20198;-74
2022/04/25 04:11:52;;;;;;;8.83;3.57;;;16.00;83.50;;;;;;5036934;28;20610;-73
2022/04/25 04:14:21;;;;;;;8.80;3.67;;;15.90;83.20;;;;;;5035778;28;20196;-74
2022/04/25 04:16:49;;;;;;;8.63;3.80;;;16.00;83.40;;;;;;5044430;28;20186;-74
2022/04/25 04:19:17;;;;;;;7.53;3.53;;;16.00;83.40;;;;;;5041127;28;20230;-73
2022/04/25 04:21:45;;;;;;;5.30;3.30;;;16.00;83.40;;;;;;5045090;28;20203;-74
2022/04/25 04:24:14;;;;;;;7.20;3.60;;;16.00;83.50;;;;;;5042227;28;20209;-74
2022/04/25 04:26:43;;;;;;;4.83;3.67;;;16.10;83.50;;;;;;5042620;28;20206;-74
2022/04/25 04:29:13;;;;;;;4.93;2.90;;;16.10;83.60;;;;;;5044075;28;20206;-74
2022/04/25 04:31:41;;;;;;;11.63;3.77;;;16.10;83.90;;;;;;5039880;28;20201;-75
2022/04/25 04:34:09;;;;;;;5.10;3.17;;;16.10;84.50;;;;;;5042250;28;20194;-74
2022/04/25 04:36:42;;;;;;;8.63;3.73;;;16.10;84.20;;;;;;5039674;28;20202;-76
2022/04/25 04:39:10;;;;;;;6.93;3.90;;;16.10;84.50;;;;;;5042946;28;20213;-75
2022/04/25 04:41:38;;;;;;;5.77;3.20;;;16.10;84.80;;;;;;5040877;28;20183;-76
2022/04/25 04:44:07;;;;;;;8.77;3.80;;;16.10;85.60;;;;;;5042872;28;20195;-75
2022/04/25 04:46:36;;;;;;;10.77;3.70;;;16.10;85.60;;;;;;5039139;28;20187;-76
2022/04/25 04:49:05;;;;;;;4.80;3.10;;;16.10;86.10;;;;;;5044266;28;20495;-74
2022/04/25 04:51:33;;;;;;;6.70;3.33;;;16.10;86.40;;;;;;5048345;28;20195;-74
2022/04/25 04:54:02;;;;;;;3.60;2.60;;;16.10;86.60;;;;;;5047682;28;20194;-75
2022/04/25 04:56:31;;;;;;;8.03;3.37;;;16.10;87.00;;;;;;5041550;28;20199;-76
2022/04/25 04:58:59;;;;;;;5.33;3.03;;;16.10;86.40;;;;;;5043010;28;20211;-76
2022/04/25 05:01:28;;;;;;;5.27;3.37;;;16.20;86.50;;;;;;5043398;28;20564;-76
2022/04/25 05:03:58;;;;;;;5.43;2.67;;;16.20;86.80;;;;;;5042435;28;20236;-75
2022/04/25 05:06:27;;;;;;;4.97;3.00;;;16.20;86.50;;;;;;5038866;28;20654;-75
2022/04/25 05:08:56;;;;;;;7.23;3.40;;;16.20;86.30;;;;;;5041822;28;20198;-75
2022/04/25 05:11:24;;;;;;;5.37;3.03;;;16.30;86.40;;;;;;5039879;28;20663;-74
2022/04/25 05:13:53;;;;;;;5.53;3.27;;;16.30;86.10;;;;;;5040686;28;20191;-75
2022/04/25 05:16:21;;;;;;;7.07;3.07;;;16.40;85.90;;;;;;5042916;28;20194;-75
2022/04/25 05:18:49;;;;;;;7.57;3.07;;;16.40;85.70;;;;;;5040348;28;20256;-73
2022/04/25 05:21:19;;;;;;;5.13;3.17;;;16.40;85.40;;;;;;5039797;28;21611;-74
2022/04/25 05:23:53;;;;;;;5.37;3.17;;;16.50;85.30;;;;;;5043519;28;20328;-73
2022/04/25 05:26:21;;;;;;;6.67;2.60;;;16.50;85.20;;;;;;5043429;28;20199;-74
2022/04/25 05:28:49;;;;;;;4.40;3.00;;;16.50;84.70;;;;;;5041989;28;20207;-74
2022/04/25 05:31:18;;;;;;;6.70;2.83;;;16.60;84.60;;;;;;5040625;28;20218;-74
2022/04/25 05:33:46;;;;;;;8.00;3.03;;;16.60;84.40;;;;;;5041533;28;20200;-73
2022/04/25 05:36:15;;;;;;;6.43;3.17;;;16.60;84.20;;;;;;5041001;28;20681;-75
2022/04/25 05:38:45;;;;;;;6.50;3.13;;;16.70;84.20;;;;;;5043202;28;20242;-75
2022/04/25 05:41:13;;;;;;;7.00;3.40;;;16.80;84.20;;;;;;5042765;28;20190;-74
2022/04/25 05:43:41;;;;;;;3.80;2.63;;;16.80;83.90;;;;;;5042524;28;20210;-75
2022/04/25 05:46:10;;;;;;;4.13;2.47;;;16.90;84.00;;;;;;5043478;28;20209;-75
2022/04/25 05:54:12;;;;;;;5.90;2.90;;;17.10;84.00;;;;;;5040850;28;20202;-74
2022/04/25 05:56:41;;;;;;;5.53;2.93;;;17.10;83.70;;;;;;5039962;28;20194;-74
2022/04/25 05:59:10;;;;;;;5.10;2.90;;;17.10;83.50;;;;;;5039964;28;20241;-74
2022/04/25 06:01:38;;;;;;;4.67;2.70;;;17.10;83.30;;;;;;5042491;28;20191;-72
2022/04/25 06:04:07;;;;;;;5.87;2.20;;;17.20;83.20;;;;;;5041415;28;20199;-75
2022/04/25 06:06:35;;;;;;;5.23;2.67;;;17.20;82.90;;;;;;5040095;28;20237;-74
2022/04/25 06:09:05;;;;;;;4.50;2.40;;;17.30;82.70;;;;;;5040585;28;20687;-76
2022/04/25 06:11:35;;;;;;;5.20;2.50;;;17.30;82.60;;;;;;5040464;28;20235;-75
2022/04/25 06:14:03;;;;;;;4.33;2.40;;;17.40;82.50;;;;;;5040516;28;20199;-75
2022/04/25 06:16:32;;;;;;;4.50;2.60;;;17.50;82.60;;;;;;5039550;28;20212;-75
2022/04/25 06:19:02;;;;;;;5.13;2.90;;;17.50;82.60;;;;;;5041167;28;20786;-74
2022/04/25 06:21:31;;;;;;;4.80;2.40;;;17.60;82.70;;;;;;5040461;28;20698;-74
2022/04/25 06:24:00;;;;;;;6.70;2.90;;;17.60;82.50;;;;;;5038611;28;20655;-72
2022/04/25 06:26:30;;;;;;;4.63;2.47;;;17.70;82.40;;;;;;5040511;28;20213;-74
2022/04/25 06:29:00;;;;;;;6.73;2.73;;;17.80;82.20;;;;;;5040286;28;20717;-74
2022/04/25 06:31:28;;;;;;;5.90;2.80;;;17.80;82.00;;;;;;5039423;28;20199;-74
2022/04/25 06:33:58;;;;;;;4.10;2.43;;;17.90;82.20;;;;;;5037878;28;20191;-74
2022/04/25 06:36:29;;;;;;;4.83;2.77;;;18.00;81.80;;;;;;5040804;28;20195;-75
2022/04/25 06:38:57;;;;;;;5.20;2.50;;;18.10;81.60;;;;;;5041251;28;20217;-74
2022/04/25 06:41:26;;;;;;;5.80;2.47;;;18.10;81.30;;;;;;5037747;28;20203;-74
2022/04/25 06:43:55;;;;;;;10.20;2.50;;;18.20;80.90;;;;;;5037151;28;20765;-73
2022/04/25 06:46:25;;;;;;;3.47;2.10;;;18.20;80.40;;;;;;5038698;28;20195;-74
2022/04/25 06:51:39;;;;;;;5.00;2.30;;;18.40;80.10;;;;;;5036895;28;20190;-74
2022/04/25 06:54:08;;;;;;;7.57;2.30;;;18.50;80.10;;;;;;5039126;28;20934;-73
2022/04/25 06:56:36;;;;;;;5.33;2.10;;;18.60;79.90;;;;;;5039124;28;20699;-73
2022/04/25 06:59:04;;;;;;;9.03;2.00;;;18.70;79.80;;;;;;5039974;28;20233;-73
2022/04/25 07:01:35;;;;;;;4.93;2.10;;;18.80;79.50;;;;;;5038830;28;20191;-74
2022/04/25 07:04:04;;;;;;;4.40;1.90;;;18.90;79.20;;;;;;5036041;28;20719;-72
2022/04/25 07:06:33;;;;;;;7.43;2.23;;;19.00;79.10;;;;;;5042350;28;20691;-71
2022/04/25 07:09:01;;;;;;;4.13;2.10;;;19.10;78.80;;;;;;5039897;28;20214;-73
2022/04/25 07:11:30;;;;;;;4.37;2.13;;;19.20;78.90;;;;;;5040180;28;20198;-73
2022/04/25 07:13:59;;;;;;;4.33;2.00;;;19.30;77.20;;;;;;5041714;28;20561;-73
2022/04/25 07:16:28;;;;;;;4.10;2.00;;;19.30;76.10;;;;;;5042355;28;20670;-74
2022/04/25 07:18:58;;;;;;;2.70;1.93;;;19.40;76.40;;;;;;5040679;28;20595;-72
2022/04/25 07:30:06;;;;;;;5.00;2.57;;;19.80;76.10;;;;;;5034971;28;20199;-72
2022/04/25 07:32:37;;;;;;;7.57;3.23;;;19.80;75.60;;;;;;5039765;28;20282;-71
2022/04/25 07:35:10;;;;;;;7.17;2.87;;;20.00;75.50;;;;;;5039089;28;20190;-73
2022/04/25 07:37:39;;;;;;;6.37;2.50;;;20.10;75.40;;;;;;5040530;28;20192;-72
2022/04/25 07:40:09;;;;;;;6.87;2.40;;;20.20;75.40;;;;;;5038485;28;20219;-72
2022/04/25 07:42:39;;;;;;;4.30;2.60;;;20.30;75.30;;;;;;5037586;28;20198;-72
2022/04/25 07:45:09;;;;;;;3.73;2.40;;;20.40;75.20;;;;;;5038135;28;20203;-73
2022/04/25 07:47:39;;;;;;;6.50;2.67;;;20.40;75.20;;;;;;5037804;28;20594;-73
2022/04/25 07:50:10;;;;;;;5.07;2.27;;;20.60;74.30;;;;;;5039514;28;20198;-72
2022/04/25 07:52:44;;;;;;;8.53;2.30;;;20.60;74.00;;;;;;5045535;28;20232;-72
2022/04/25 07:55:16;;;;;;;8.57;2.40;;;20.70;73.90;;;;;;5059785;28;20728;-72
2022/04/25 07:57:46;;;;;;;7.97;2.20;;;20.70;73.30;;;;;;5061556;28;20202;-73
2022/04/25 08:00:15;;;;;;;5.13;2.50;;;20.80;72.70;;;;;;5060475;28;20218;-72
2022/04/25 08:02:43;;;;;;;8.60;2.22;;;20.90;72.70;;;;;;5059647;28;20288;-73
2022/04/25 08:05:13;;;;;;;5.47;2.15;;;21.00;72.80;;;;;;5061251;28;20293;-72
2022/04/25 08:07:42;;;;;;;3.85;1.83;;;21.00;73.10;;;;;;5058361;28;20217;-73
2022/04/25 08:10:10;;;;;;;7.80;2.40;;;21.10;71.70;;;;;;5061271;28;20196;-73
2022/04/25 08:18:13;;;;;;;7.40;2.55;;;21.40;70.70;;;;;;5060169;28;20655;-73
2022/04/25 08:20:43;;;;;;;7.55;2.78;;;21.50;71.50;;;;;;5062193;28;20221;-74
2022/04/25 08:23:13;;;;;;;7.30;2.25;;;21.60;69.70;;;;;;5058824;28;20183;-71
2022/04/25 08:25:42;;;;;;;7.60;2.70;;;21.70;69.70;;;;;;5060947;28;20198;-73
2022/04/25 08:28:12;;;;;;;5.10;2.70;;;21.80;70.00;;;;;;5061738;28;20195;-73
2022/04/25 08:30:40;;;;;;;6.88;2.40;;;21.90;69.90;;;;;;5060522;28;20197;-73
2022/04/25 08:33:11;;;;;;;8.90;2.45;;;22.00;69.50;;;;;;5057702;28;20196;-75
2022/04/25 08:35:39;;;;;;;7.45;2.53;;;22.00;69.20;;;;;;5060030;28;20186;-75
2022/04/25 08:38:09;;;;;;;8.95;2.60;;;22.10;68.70;;;;;;5061625;28;20210;-73
2022/04/25 08:40:39;;;;;;;8.43;2.35;;;22.20;68.40;;;;;;5060042;28;20725;-73
2022/04/25 08:43:09;;;;;;;6.88;2.50;;;22.30;68.50;;;;;;5058057;28;20197;-74
2022/04/25 08:45:38;;;;;;;5.05;2.08;;;22.40;68.20;;;;;;5060410;28;20201;-73
2022/04/25 08:48:09;;;;;;;5.93;2.22;;;22.40;68.00;;;;;;5058582;28;20288;-73
2022/04/25 08:50:40;;;;;;;14.73;2.15;;;22.50;67.60;;;;;;5059003;28;20705;-72
2022/04/25 08:53:13;;;;;;;8.65;2.00;;;22.60;67.60;;;;;;5061141;28;20214;-72
2022/04/25 08:55:41;;;;;;;10.95;2.72;;;22.70;66.70;;;;;;5056394;28;20197;-72
2022/04/25 08:58:11;;;;;;;5.95;2.33;;;22.80;66.40;;;;;;5060224;28;20662;-73
2022/04/25 09:00:40;;;;;;;14.65;2.83;;;22.80;66.30;;;;;;5058956;28;21722;-73
2022/04/25 09:03:13;;;;;;;8.75;2.25;;;22.90;66.30;;;;;;5058919;28;20240;-73
2022/04/25 09:05:42;;;;;;;11.98;2.58;;;23.00;66.40;;;;;;5056977;28;20717;-74
2022/04/25 09:08:12;;;;;;;10.45;2.55;;;23.10;65.70;;;;;;5060794;28;20199;-74
2022/04/25 09:10:41;;;;;;;8.13;2.35;;;23.20;65.20;;;;;;5058728;28;20640;-74
2022/04/25 09:13:11;;;;;;;14.95;3.25;;;23.30;65.40;;;;;;5061123;28;20198;-74
2022/04/25 09:15:39;;;;;;;7.63;3.10;;;23.30;64.70;;;;;;5060128;28;20190;-74
2022/04/25 09:18:08;;;;;;;10.00;2.75;;;23.30;63.80;;;;;;5058032;28;20264;-74
2022/04/25 09:20:42;;;;;;;12.13;2.42;;;23.30;63.00;;;;;;5059690;28;20241;-74
2022/04/25 09:23:22;;;;;;;11.52;2.60;;;23.30;63.70;;;;;;5060499;28;20202;-74
2022/04/25 09:26:11;;;;;;;9.00;2.50;;;23.40;63.30;;;;;;5058405;28;20186;-74
2022/04/25 09:28:47;;;;;;;16.58;2.45;;;23.40;62.80;;;;;;5059053;28;20194;-74
2022/04/25 09:31:16;;;;;;;10.13;2.67;;;23.50;63.30;;;;;;5059519;28;20194;-73
2022/04/25 09:33:46;;;;;;;9.07;2.95;;;23.50;63.10;;;;;;5060504;28;20248;-75
2022/04/25 09:36:15;;;;;;;7.40;2.40;;;23.60;62.80;;;;;;5060423;28;20189;-75
2022/04/25 09:38:46;;;;;;;9.73;2.55;;;23.60;63.30;;;;;;5059232;28;20194;-73
2022/04/25 09:41:16;;;;;;;9.80;2.50;;;23.70;63.30;;;;;;5058740;28;20707;-73
2022/04/25 09:43:47;;;;;;;7.38;2.40;;;23.70;63.40;;;;;;5058868;28;20186;-74
2022/04/25 09:46:17;;;;;;;6.55;2.17;;;23.70;63.30;;;;;;5059553;28;20225;-74
2022/04/25 09:49:02;;;;;;;7.03;2.53;;;23.80;63.10;;;;;;5060171;28;20262;-74
2022/04/25 09:51:31;;;;;;;11.10;2.50;;;23.90;62.90;;;;;;5057938;28;20191;-74
2022/04/25 09:54:01;;;;;;;14.65;2.80;;;23.90;62.70;;;;;;5058977;28;20194;-74
2022/04/25 09:56:31;;;;;;;9.68;2.22;;;24.00;62.60;;;;;;5057911;28;20288;-75
2022/04/25 09:59:01;;;;;;;9.27;2.08;;;24.00;62.50;;;;;;5058357;28;20193;-73
2022/04/25 10:01:31;;;;;;;7.00;2.75;;;24.10;62.10;;;;;;5058804;28;20912;-74
2022/04/25 10:04:00;;;;;;;8.18;2.20;;;24.20;62.00;;;;;;5059213;28;20261;-74
2022/04/25 10:06:32;;;;;;;8.63;2.40;;;24.30;61.60;;;;;;5057512;28;20204;-72
2022/04/25 10:09:05;;;;;;;13.50;2.88;;;24.30;61.60;;;;;;5059890;28;20189;-73
2022/04/25 10:11:36;;;;;;;13.55;2.53;;;24.40;61.30;;;;;;5057306;28;20243;-72
2022/04/25 10:14:04;;;;;;;9.63;2.53;;;24.40;60.00;;;;;;5057943;28;20221;-72
2022/04/25 10:16:34;;;;;;;11.20;2.65;;;24.50;59.90;;;;;;5060641;28;20205;-73
2022/04/25 10:19:03;;;;;;;15.02;3.33;;;24.50;60.70;;;;;;5061247;28;20685;-73
2022/04/25 10:21:32;;;;;;;11.20;2.83;;;24.60;61.10;;;;;;5060845;28;20776;-72
2022/04/25 10:24:02;;;;;;;14.00;2.85;;;24.70;60.70;;;;;;5060594;28;20631;-72
2022/04/25 10:26:32;;;;;;;14.73;3.50;;;24.70;61.20;;;;;;5060637;28;20190;-72
2022/04/25 10:29:08;;;;;;;15.85;2.75;;;24.80;59.50;;;;;;5059715;28;20193;-72
2022/04/25 10:31:41;;;;;;;16.55;2.47;;;24.90;59.60;;;;;;5060865;28;20197;-76
2022/04/25 10:34:10;;;;;;;12.23;2.55;;;25.00;59.60;;;;;;5059775;28;20857;-71
2022/04/25 10:36:46;;;;;;;14.20;2.72;;;25.00;58.80;;;;;;5056541;28;20202;-72
2022/04/25 10:39:18;;;;;;;10.82;3.13;;;25.10;59.00;;;;;;5057552;28;20190;-73
2022/04/25 10:45:00;;;;;;;12.88;2.53;;;25.00;57.50;;;;;;5060475;28;20198;-72
2022/04/25 10:47:29;;;;;;;15.70;2.55;;;25.00;57.90;;;;;;5056655;28;20215;-72
2022/04/25 10:50:06;;;;;;;14.57;2.10;;;25.10;58.00;;;;;;5058156;28;20192;-73
2022/04/25 10:52:55;;;;;;;15.57;2.78;;;25.10;57.50;;;;;;5056339;28;20222;-74
2022/04/25 10:55:45;;;;;;;12.65;2.47;;;25.20;58.20;;;;;;5057153;28;20206;-73
2022/04/25 10:58:21;;;;;;;11.25;2.10;;;25.20;58.00;;;;;;5059351;28;20225;-73
2022/04/25 11:00:56;;;;;;;11.38;2.55;;;25.30;58.00;;;;;;5058315;28;20202;-72
2022/04/25 11:03:27;;;;;;;10.63;2.22;;;25.40;57.10;;;;;;5061710;28;20238;-73
2022/04/25 11:05:57;;;;;;;11.75;2.00;;;25.40;57.10;;;;;;5059208;28;20205;-71
2022/04/25 11:08:35;;;;;;;4.93;1.83;;;25.50;57.40;;;;;;5059963;28;20220;-70
2022/04/25 11:11:21;;;;;;;15.00;2.70;;;25.60;57.50;;;;;;5056988;28;20194;-73
2022/04/25 11:14:12;;;;;;;15.52;2.65;;;25.60;57.30;;;;;;5057791;28;20209;-72
2022/04/25 11:16:41;;;;;;;9.05;2.38;;;25.70;57.30;;;;;;5057857;28;20263;-72
2022/04/25 11:19:14;;;;;;;11.93;2.40;;;25.80;57.60;;;;;;5058921;28;20203;-72
2022/04/25 11:21:46;;;;;;;12.18;2.50;;;25.90;57.80;;;;;;5055911;28;20213;-72
2022/04/25 11:24:35;;;;;;;13.90;3.05;;;25.90;55.60;;;;;;5059964;28;20618;-73
2022/04/25 11:27:11;;;;;;;12.82;3.15;;;25.90;55.20;;;;;;5061790;28;20568;-74
2022/04/25 11:29:47;;;;;;;9.38;2.85;;;26.00;54.90;;;;;;5062963;28;20194;-73
2022/04/25 11:32:30;;;;;;;17.85;6.45;;;26.10;55.00;;;;;;5062349;28;20273;-73
2022/04/25 11:35:03;;;;;;;14.85;4.07;;;26.20;55.10;;;;;;5062045;28;20201;-72
2022/04/25 11:37:35;;;;;;;13.00;3.63;;;26.20;53.60;;;;;;5061348;28;20206;-76
2022/04/25 11:40:05;;;;;;;12.00;3.40;;;26.20;53.60;;;;;;5060065;28;20245;-75
2022/04/25 11:42:36;;;;;;;10.27;2.70;;;26.30;53.90;;;;;;5060290;28;20213;-74
2022/04/25 11:45:06;;;;;;;14.07;2.40;;;26.40;54.90;;;;;;5060428;28;20190;-72
2022/04/25 11:47:35;;;;;;;13.75;2.58;;;26.50;54.70;;;;;;5061254;28;20205;-73
2022/04/25 11:50:06;;;;;;;10.02;2.10;;;26.50;54.90;;;;;;5062044;28;20231;-73
2022/04/25 11:52:34;;;;;;;8.30;2.38;;;26.50;54.90;;;;;;5060047;28;20221;-75
2022/04/25 11:55:03;;;;;;;7.97;2.05;;;26.60;54.50;;;;;;5060817;28;20195;-72
2022/04/25 11:57:42;;;;;;;7.47;1.65;;;26.70;54.20;;;;;;5061433;28;20719;-74
2022/04/25 12:00:14;;;;;;;6.47;1.45;;;26.70;51.40;;;;;;5060606;28;20221;-74
2022/04/25 12:02:43;;;;;;;9.80;2.13;;;26.70;48.30;;;;;;5059986;28;20214;-73
2022/04/25 12:05:12;;;;;;;9.80;1.88;;;26.80;49.00;;;;;;5061858;28;20195;-72
2022/04/25 12:16:03;;;;;;;5.88;1.52;;;26.90;48.10;;;;;;5061313;28;20332;-75
2022/04/25 12:18:32;;;;;;;12.50;2.38;;;26.90;48.50;;;;;;5061525;28;20201;-72
2022/04/25 12:21:04;;;;;;;9.63;2.20;;;27.00;48.80;;;;;;5059894;28;20191;-73
2022/04/25 12:23:36;;;;;;;10.23;2.05;;;27.00;49.40;;;;;;5059205;28;20206;-75
2022/04/25 12:26:06;;;;;;;5.95;2.35;;;27.00;49.90;;;;;;5060096;28;20193;-74
2022/04/25 12:28:37;;;;;;;7.68;1.83;;;27.10;50.70;;;;;;5060011;28;20687;-73
2022/04/25 12:31:08;;;;;;;6.82;2.17;;;27.10;50.80;;;;;;5061109;28;20216;-75
2022/04/25 12:33:38;;;;;;;6.93;1.85;;;27.20;51.00;;;;;;5060267;28;20919;-74
2022/04/25 12:36:16;;;;;;;10.90;1.83;;;27.20;51.00;;;;;;5058993;28;20193;-74
2022/04/25 12:38:52;;;;;;;12.65;1.80;;;27.30;51.50;;;;;;5059780;28;20557;-73
2022/04/25 12:41:23;;;;;;;8.77;1.90;;;27.30;51.00;;;;;;5059322;28;20559;-71
2022/04/25 12:43:54;;;;;;;10.40;2.00;;;27.30;49.80;;;;;;5059941;28;20207;-73
2022/04/25 12:46:38;;;;;;;13.45;2.17;;;27.30;50.20;;;;;;5060102;28;20565;-74
2022/04/25 12:49:08;;;;;;;13.88;2.00;;;27.40;50.20;;;;;;5060266;28;20194;-75
2022/04/25 12:51:42;;;;;;;9.23;1.70;;;27.40;50.20;;;;;;5059428;28;20191;-75
2022/04/25 12:54:26;;;;;;;7.78;1.60;;;27.40;49.00;;;;;;5062070;28;20723;-74
2022/04/25 12:57:08;;;;;;;6.05;2.03;;;27.40;48.80;;;;;;5058747;28;20697;-73
2022/04/25 12:59:38;;;;;;;10.73;2.13;;;27.50;48.90;;;;;;5058231;28;20197;-77
2022/04/25 13:02:10;;;;;;;8.80;1.38;;;27.50;47.90;;;;;;5059746;28;20209;-74
2022/04/25 13:04:51;;;;;;;7.20;2.17;;;27.50;48.10;;;;;;5061561;28;20745;-73
2022/04/25 13:07:21;;;;;;;8.93;1.75;;;27.50;48.40;;;;;;5060577;28;20276;-74
2022/04/25 13:09:50;;;;;;;12.33;2.13;;;27.60;48.10;;;;;;5061207;28;20415;-75
2022/04/25 13:12:20;;;;;;;5.53;1.30;;;27.60;48.70;;;;;;5061030;28;20443;-74
2022/04/25 13:14:49;;;;;;;10.23;1.50;;;27.70;47.20;;;;;;5059967;28;20920;-74
2022/04/25 13:17:18;;;;;;;7.30;1.42;;;27.70;46.40;;;;;;5061209;28;20830;-74
2022/04/25 13:19:46;;;;;;;9.05;1.77;;;27.90;46.70;;;;;;5061306;28;20221;-73
2022/04/25 13:22:14;;;;;;;10.80;1.48;;;27.90;46.80;;;;;;5063884;28;20221;-73
2022/04/25 13:24:43;;;;;;;14.50;2.22;;;28.00;46.30;;;;;;5063876;28;20284;-73
2022/04/25 13:27:12;;;;;;;13.43;1.92;;;28.10;46.60;;;;;;5062322;28;20202;-75
2022/04/25 13:29:41;;;;;;;8.75;1.70;;;28.10;46.30;;;;;;5062241;28;20206;-74
2022/04/25 13:32:12;;;;;;;6.53;1.60;;;28.10;46.10;;;;;;5060281;28;20183;-74
2022/04/25 13:34:40;;;;;;;5.55;1.80;;;28.20;45.60;;;;;;5061312;28;20194;-74
2022/04/25 13:37:10;;;;;;;9.43;1.85;;;28.10;45.00;;;;;;5060208;28;20882;-73
2022/04/25 13:39:39;;;;;;;11.02;2.65;;;28.10;44.90;;;;;;5062129;28;20194;-72
2022/04/25 13:42:08;;;;;;;13.88;2.78;;;28.20;45.30;;;;;;5060705;28;20198;-74